createdAt,value
2022-11-16T00:00:30.838Z,14.13
2022-11-16T00:05:34.327Z,16.00
2022-11-16T00:10:39.315Z,18.17
2022-11-16T00:15:42.638Z,18.35
2022-11-16T00:20:46.282Z,13.70
2022-11-16T00:25:51.511Z,16.02
2022-11-16T00:31:00.007Z,14.80
2022-11-16T00:36:04.381Z,13.10
2022-11-16T00:41:09.727Z,9.70
2022-11-16T00:46:13.206Z,10.30
2022-11-16T00:51:16.733Z,15.35
2022-11-16T00:56:21.764Z,11.75
2022-11-16T01:01:25.417Z,10.27
2022-11-16T01:06:28.894Z,11.23
2022-11-16T01:11:51.004Z,14.10
2022-11-16T01:16:54.530Z,13.70
2022-11-16T01:21:57.953Z,13.32
2022-11-16T01:27:02.852Z,12.00
2022-11-16T01:32:06.957Z,12.80
2022-11-16T01:37:10.707Z,10.57
2022-11-16T01:42:19.745Z,9.65
2022-11-16T01:47:23.256Z,14.07
2022-11-16T01:52:31.498Z,12.35
2022-11-16T01:57:41.108Z,12.43
2022-11-16T02:02:44.510Z,10.52
2022-11-16T02:08:36.453Z,13.02
2022-11-16T02:13:52.150Z,9.63
2022-11-16T02:19:08.056Z,12.60
2022-11-16T02:24:43.999Z,13.15
2022-11-16T02:29:52.568Z,12.98
2022-11-16T02:34:59.736Z,16.65
2022-11-16T02:40:06.505Z,11.90
2022-11-16T02:45:15.234Z,12.15
2022-11-16T02:50:23.689Z,18.85
2022-11-16T02:55:30.076Z,14.63
2022-11-16T03:00:43.854Z,11.68
2022-11-16T03:05:51.969Z,14.35
2022-11-16T03:11:17.315Z,13.05
2022-11-16T03:16:25.014Z,12.10
2022-11-16T03:21:34.597Z,9.85
2022-11-16T03:26:46.972Z,8.45
2022-11-16T03:31:56.425Z,9.93
2022-11-16T03:37:01.819Z,11.18
2022-11-16T03:42:10.144Z,7.25
2022-11-16T03:47:15.516Z,11.60
2022-11-16T03:52:19.245Z,9.63
2022-11-16T03:57:22.767Z,8.90
2022-11-16T04:02:27.549Z,11.05
2022-11-16T04:13:08.661Z,9.00
2022-11-16T04:18:31.410Z,9.07
2022-11-16T04:23:52.377Z,12.10
2022-11-16T04:28:56.046Z,11.15
2022-11-16T04:34:17.951Z,9.38
2022-11-16T04:39:21.478Z,13.52
2022-11-16T04:44:29.900Z,10.63
2022-11-16T04:49:35.736Z,12.68
2022-11-16T04:54:39.028Z,10.32
2022-11-16T04:59:42.503Z,12.07
2022-11-16T05:04:47.122Z,10.77
2022-11-16T05:09:51.494Z,8.93
2022-11-16T05:14:56.177Z,9.25
2022-11-16T05:25:21.473Z,14.70
2022-11-16T05:30:25.167Z,10.88
2022-11-16T05:35:30.001Z,13.15
2022-11-16T05:40:34.535Z,11.25
2022-11-16T05:45:37.863Z,10.82
2022-11-16T05:50:43.277Z,10.23
2022-11-16T05:55:46.704Z,11.45
2022-11-16T06:00:51.386Z,7.78
2022-11-16T06:11:03.598Z,11.32
2022-11-16T06:16:07.507Z,10.40
2022-11-16T06:21:12.984Z,10.87
2022-11-16T06:26:16.380Z,11.80
2022-11-16T06:31:19.936Z,7.78
2022-11-16T06:36:24.843Z,9.57
2022-11-16T06:46:32.412Z,7.78
2022-11-16T06:51:37.252Z,12.07
2022-11-16T06:56:40.656Z,9.38
2022-11-16T07:01:44.239Z,8.70
2022-11-16T07:06:49.090Z,10.70
2022-11-16T07:11:52.401Z,8.15
2022-11-16T07:16:59.762Z,10.77
2022-11-16T07:22:06.249Z,10.25
2022-11-16T07:27:09.765Z,10.23
2022-11-16T07:32:13.318Z,8.45
2022-11-16T07:37:18.233Z,10.57
2022-11-16T07:42:21.604Z,12.27
2022-11-16T07:47:25.256Z,9.93
2022-11-16T07:52:29.921Z,9.20
2022-11-16T07:57:33.458Z,9.85
2022-11-16T08:02:37.017Z,12.27
2022-11-16T08:07:41.880Z,9.07
2022-11-16T08:12:45.379Z,11.30
2022-11-16T08:17:48.948Z,9.93
2022-11-16T08:22:53.520Z,10.43
2022-11-16T08:27:57.779Z,8.90
2022-11-16T08:33:01.018Z,9.73
2022-11-16T08:38:05.678Z,8.80
2022-11-16T08:43:11.144Z,9.80
2022-11-16T08:48:14.789Z,8.90
2022-11-16T08:53:19.715Z,9.75
2022-11-16T08:58:23.344Z,8.98
2022-11-16T09:03:26.752Z,10.20
2022-11-16T09:08:32.014Z,8.70
2022-11-16T09:13:35.571Z,13.05
2022-11-16T09:18:39.384Z,8.55
2022-11-16T09:23:44.288Z,7.78
2022-11-16T09:33:51.332Z,8.20
2022-11-16T09:39:29.095Z,7.25
2022-11-16T09:44:39.075Z,8.38
2022-11-16T09:49:48.928Z,8.43
2022-11-16T09:54:56.290Z,6.88
2022-11-16T10:00:03.616Z,7.82
2022-11-16T10:05:15.750Z,7.10
2022-11-16T10:10:33.538Z,8.02
2022-11-16T10:15:49.685Z,7.82
2022-11-16T10:21:10.970Z,9.15
2022-11-16T10:26:26.703Z,7.30
2022-11-16T10:31:42.617Z,5.43
2022-11-16T10:36:46.845Z,5.88
2022-11-16T10:41:52.249Z,5.45
2022-11-16T10:47:03.844Z,6.68
2022-11-16T10:52:10.917Z,6.60
2022-11-16T10:57:17.034Z,8.00
2022-11-16T11:02:38.010Z,8.13
2022-11-16T11:07:41.518Z,7.53
2022-11-16T11:13:04.193Z,5.85
2022-11-16T11:18:19.461Z,7.20
2022-11-16T11:23:25.248Z,6.13
2022-11-16T11:28:32.011Z,5.75
2022-11-16T11:33:38.427Z,8.65
2022-11-16T11:38:59.303Z,4.15
2022-11-16T11:44:06.001Z,8.40
2022-11-16T11:49:17.983Z,8.90
2022-11-16T11:54:26.980Z,6.38
2022-11-16T11:59:32.137Z,5.75
2022-11-16T12:05:12.053Z,7.63
2022-11-16T12:10:23.105Z,9.90
2022-11-16T12:15:58.913Z,7.97
2022-11-16T12:21:11.206Z,7.07
2022-11-16T12:26:20.410Z,8.35
2022-11-16T12:31:49.188Z,8.63
2022-11-16T12:37:01.278Z,8.82
2022-11-16T12:42:31.093Z,7.90
2022-11-16T12:47:49.079Z,7.03
2022-11-16T12:53:23.848Z,8.65
2022-11-16T12:58:43.251Z,7.35
2022-11-16T13:03:54.105Z,6.85
2022-11-16T13:09:04.628Z,13.02
2022-11-16T13:14:15.359Z,9.90
2022-11-16T13:19:21.299Z,8.73
2022-11-16T13:24:34.386Z,8.05
2022-11-16T13:29:44.593Z,15.70
2022-11-16T13:34:50.721Z,11.73
2022-11-16T13:40:22.897Z,13.13
2022-11-16T13:45:32.315Z,11.35
2022-11-16T13:50:39.978Z,15.93
2022-11-16T13:55:46.350Z,13.63
2022-11-16T14:00:59.065Z,21.63
2022-11-16T14:06:03.962Z,22.73
2022-11-16T14:16:49.144Z,29.13
2022-11-16T14:22:03.359Z,19.25
2022-11-16T14:27:16.375Z,16.60
2022-11-16T14:32:24.605Z,21.33
2022-11-16T14:37:35.240Z,17.77
2022-11-16T14:43:14.949Z,16.52
2022-11-16T14:48:18.148Z,15.75
2022-11-16T14:53:21.992Z,15.80
2022-11-16T14:58:25.354Z,24.93
2022-11-16T15:03:34.941Z,28.02
2022-11-16T15:08:44.606Z,37.83
2022-11-16T15:13:49.322Z,36.30
2022-11-16T15:29:28.045Z,32.78
2022-11-16T15:34:33.571Z,30.40
2022-11-16T15:39:37.999Z,32.50
2022-11-16T15:44:42.267Z,30.08
2022-11-16T15:49:54.145Z,29.58
2022-11-16T15:55:04.972Z,33.83
2022-11-16T16:00:23.993Z,28.27
2022-11-16T16:05:37.312Z,29.27
2022-11-16T16:10:41.137Z,25.92
2022-11-16T16:15:44.527Z,26.33
2022-11-16T16:20:50.805Z,30.50
2022-11-16T16:25:54.209Z,34.30
2022-11-16T16:30:59.397Z,23.45
2022-11-16T16:36:05.041Z,27.55
2022-11-16T16:41:09.593Z,24.80
2022-11-16T16:46:14.295Z,24.38
2022-11-16T16:56:22.694Z,24.58
2022-11-16T17:01:26.947Z,20.43
2022-11-16T17:06:31.918Z,25.02
2022-11-16T17:16:38.779Z,22.23
2022-11-16T17:21:45.056Z,22.27
2022-11-16T17:26:49.006Z,21.45
2022-11-16T17:31:52.730Z,20.73
2022-11-16T17:36:57.786Z,20.55
2022-11-16T17:42:01.629Z,19.85
2022-11-16T17:47:04.894Z,15.57
2022-11-16T17:52:10.324Z,20.02
2022-11-16T17:57:14.114Z,22.02
2022-11-16T18:02:17.677Z,20.23
2022-11-16T18:07:23.287Z,21.42
2022-11-16T18:12:27.261Z,23.90
2022-11-16T18:17:35.150Z,21.77
2022-11-16T18:27:43.339Z,18.83
2022-11-16T18:32:46.976Z,18.70
2022-11-16T18:37:52.184Z,19.05
2022-11-16T18:42:55.805Z,23.88
2022-11-16T18:47:59.304Z,17.63
2022-11-16T18:53:04.609Z,19.17
2022-11-16T18:58:22.806Z,25.77
2022-11-16T19:03:32.643Z,22.83
2022-11-16T19:08:38.997Z,29.95
2022-11-16T19:13:43.885Z,25.60
2022-11-16T19:23:54.217Z,23.55
2022-11-16T19:28:57.452Z,22.00
2022-11-16T19:34:02.558Z,22.27
2022-11-16T19:39:07.681Z,20.75
2022-11-16T19:44:11.251Z,26.70
2022-11-16T19:49:20.131Z,26.00
2022-11-16T19:54:25.107Z,22.85
2022-11-16T20:04:33.865Z,26.33
2022-11-16T20:09:38.546Z,22.65
2022-11-16T20:14:41.985Z,22.33
2022-11-16T20:19:47.206Z,20.98
2022-11-16T20:24:52.202Z,28.20
2022-11-16T20:29:55.794Z,22.05
2022-11-16T20:34:59.218Z,19.42
2022-11-16T20:40:04.136Z,19.40
2022-11-16T20:45:09.067Z,20.85
2022-11-16T20:55:17.080Z,23.90
2022-11-16T21:00:20.777Z,21.25
2022-11-16T21:05:24.204Z,23.70
2022-11-16T21:10:28.906Z,19.05
2022-11-16T21:15:32.359Z,16.45
2022-11-16T21:20:35.631Z,18.13
2022-11-16T21:25:40.321Z,15.00
2022-11-16T21:30:43.535Z,18.30
2022-11-16T21:35:46.899Z,20.00
2022-11-16T21:40:51.861Z,16.95
2022-11-16T21:46:03.153Z,17.83
2022-11-16T21:51:08.590Z,23.15
2022-11-16T21:56:15.785Z,23.45
2022-11-16T22:01:19.344Z,21.45
2022-11-16T22:06:40.300Z,17.70
2022-11-16T22:11:44.927Z,18.02
2022-11-16T22:16:48.362Z,14.82
2022-11-16T22:21:51.847Z,16.45
2022-11-16T22:26:56.594Z,14.18
2022-11-16T22:32:00.105Z,17.73
2022-11-16T22:37:03.726Z,17.08
2022-11-16T22:42:08.681Z,15.95
2022-11-16T22:47:12.183Z,21.30
2022-11-16T22:52:15.598Z,19.13
2022-11-16T22:57:20.558Z,17.88
2022-11-16T23:02:23.836Z,18.98
2022-11-16T23:07:27.167Z,20.33
2022-11-16T23:12:49.379Z,20.08
2022-11-16T23:17:52.852Z,24.30
2022-11-16T23:23:09.953Z,24.65
2022-11-16T23:28:17.592Z,22.67
2022-11-16T23:33:41.365Z,23.70
2022-11-16T23:38:44.879Z,25.00
2022-11-16T23:44:01.596Z,24.80
2022-11-16T23:49:04.923Z,25.00
2022-11-16T23:54:08.163Z,21.73
2022-11-16T23:59:13.252Z,27.10
